Time;durP1;ratioP1;P1;durP2;ratioP2;P2;SDS_P1;SDS_P2;PMS_P1;PMS_P2;Temp;Humidity;BMP_temperature;BMP_pressure;BME280_temperature;BME280_humidity;BME280_pressure;Samples;Min_cycle;Max_cycle;Signal;HPM_P1;HPM_P2
2022/12/22 03:28:14;;;;;;;0.60;0.60;;;8.80;71.40;;;;;;5085167;28;20106;-76
2022/12/22 03:30:40;;;;;;;0.95;0.68;;;8.90;71.50;;;;;;5068150;28;20503;-80
2022/12/22 03:33:06;;;;;;;0.50;0.50;;;8.90;71.50;;;;;;5067407;28;20109;-77
2022/12/22 03:35:32;;;;;;;1.98;0.77;;;8.90;71.50;;;;;;5070329;28;20127;-80
2022/12/22 03:38:02;;;;;;;0.70;0.70;;;8.90;71.60;;;;;;5068418;28;20036;-77
2022/12/22 03:40:31;;;;;;;0.98;0.75;;;8.90;71.60;;;;;;5073144;28;20033;-76
2022/12/22 03:48:27;;;;;;;0.63;0.63;;;8.90;71.60;;;;;;5069066;28;20060;-76
2022/12/22 03:50:53;;;;;;;0.98;0.70;;;8.90;71.60;;;;;;5075804;28;20119;-77
2022/12/22 03:53:18;;;;;;;1.88;0.88;;;8.90;71.60;;;;;;5067085;28;20075;-75
2022/12/22 03:55:44;;;;;;;1.58;0.80;;;8.90;71.60;;;;;;5067453;28;20044;-76
2022/12/22 03:58:10;;;;;;;0.80;0.80;;;8.90;71.60;;;;;;5068659;28;20039;-74
2022/12/22 04:00:36;;;;;;;0.82;0.82;;;8.90;71.60;;;;;;5083507;28;20059;-75
2022/12/22 04:03:02;;;;;;;1.65;0.82;;;8.90;71.60;;;;;;5075829;28;20510;-75
2022/12/22 04:05:28;;;;;;;1.45;0.93;;;8.90;71.60;;;;;;5068629;28;20036;-74
2022/12/22 04:07:54;;;;;;;0.90;0.90;;;8.90;71.60;;;;;;5074426;28;20392;-75
2022/12/22 04:13:04;;;;;;;2.05;0.90;;;8.90;71.60;;;;;;5072221;28;20041;-75
2022/12/22 04:15:31;;;;;;;1.52;1.00;;;8.90;71.70;;;;;;5070966;28;20040;-73
2022/12/22 04:17:57;;;;;;;2.05;1.10;;;8.90;71.70;;;;;;5071578;28;20028;-78
2022/12/22 04:20:28;;;;;;;1.10;1.00;;;8.90;71.70;;;;;;5071094;28;20032;-75
2022/12/22 04:22:55;;;;;;;1.98;1.15;;;8.90;71.80;;;;;;5070115;28;20453;-76
2022/12/22 04:25:22;;;;;;;1.30;0.95;;;9.00;71.80;;;;;;5072711;28;20032;-80
2022/12/22 04:27:48;;;;;;;2.13;1.20;;;9.00;71.80;;;;;;5054109;28;20042;-79
2022/12/22 04:30:15;;;;;;;1.08;0.90;;;9.00;71.80;;;;;;5088077;28;20115;-77
2022/12/22 04:32:41;;;;;;;1.20;1.00;;;9.00;71.90;;;;;;5082299;28;20048;-77
2022/12/22 04:35:07;;;;;;;1.27;1.17;;;9.00;71.90;;;;;;5072678;28;20043;-79
2022/12/22 04:37:34;;;;;;;1.25;1.15;;;9.00;71.90;;;;;;5087135;28;20380;-77
2022/12/22 04:40:00;;;;;;;1.38;1.20;;;9.00;71.90;;;;;;5072318;28;20503;-82
2022/12/22 04:42:25;;;;;;;1.70;1.30;;;9.00;71.90;;;;;;5067807;28;20032;-75
2022/12/22 04:44:51;;;;;;;1.40;1.30;;;9.00;71.90;;;;;;5036975;28;20553;-75
2022/12/22 04:47:17;;;;;;;1.33;1.23;;;9.00;71.90;;;;;;5080926;28;20040;-75
2022/12/22 04:49:43;;;;;;;2.05;1.48;;;9.00;71.90;;;;;;5073967;28;20722;-75
2022/12/22 04:52:10;;;;;;;0.93;0.90;;;9.00;71.80;;;;;;5070924;28;20287;-75
2022/12/22 04:54:36;;;;;;;3.78;1.42;;;9.00;71.80;;;;;;5069990;28;20079;-74
2022/12/22 04:57:02;;;;;;;1.50;1.20;;;9.00;71.80;;;;;;5072582;28;20063;-74
2022/12/22 04:59:28;;;;;;;1.58;1.30;;;9.00;71.90;;;;;;5072334;28;20453;-74
2022/12/22 05:01:53;;;;;;;1.98;1.30;;;9.00;72.00;;;;;;5070179;28;20047;-75
2022/12/22 05:04:20;;;;;;;3.03;1.92;;;9.00;72.00;;;;;;5081273;28;20044;-74
2022/12/22 05:06:45;;;;;;;2.47;1.80;;;9.00;72.10;;;;;;5071428;28;20481;-74
2022/12/22 05:09:11;;;;;;;1.83;1.58;;;9.00;72.10;;;;;;5069770;28;20028;-75
2022/12/22 05:11:38;;;;;;;2.45;1.65;;;9.00;72.20;;;;;;5071687;28;20037;-75
2022/12/22 05:14:04;;;;;;;2.53;1.67;;;9.00;72.20;;;;;;5071144;28;20431;-75
2022/12/22 05:16:30;;;;;;;2.50;1.90;;;9.00;72.30;;;;;;5077869;28;20067;-73
2022/12/22 05:18:56;;;;;;;3.25;2.33;;;9.00;72.40;;;;;;5084370;28;20036;-74
2022/12/22 05:21:22;;;;;;;2.30;2.10;;;9.10;72.50;;;;;;5071080;28;20028;-73
2022/12/22 05:23:49;;;;;;;2.65;1.90;;;9.00;72.40;;;;;;5071633;28;20048;-73
2022/12/22 05:26:16;;;;;;;1.90;1.60;;;9.10;72.60;;;;;;5079605;28;20559;-73
2022/12/22 05:28:45;;;;;;;2.95;2.22;;;9.00;72.60;;;;;;5070745;28;20167;-76
2022/12/22 05:31:19;;;;;;;2.05;1.70;;;9.10;72.60;;;;;;5067877;28;20041;-75
2022/12/22 05:33:45;;;;;;;3.90;2.10;;;9.10;72.70;;;;;;5067526;28;20052;-77
2022/12/22 05:36:12;;;;;;;2.50;2.30;;;9.10;72.80;;;;;;5069799;28;20044;-76
2022/12/22 05:38:38;;;;;;;2.30;1.88;;;9.10;72.80;;;;;;5071045;28;20032;-77
2022/12/22 05:41:05;;;;;;;2.08;1.85;;;9.10;72.80;;;;;;5070119;28;20415;-76
2022/12/22 05:43:34;;;;;;;2.47;2.25;;;9.10;72.80;;;;;;5084771;28;20040;-77
2022/12/22 05:46:05;;;;;;;3.17;2.28;;;9.10;72.80;;;;;;5069196;28;20043;-77
2022/12/22 05:48:32;;;;;;;2.75;2.20;;;9.10;72.80;;;;;;5037404;28;20073;-75
2022/12/22 05:50:58;;;;;;;3.50;2.35;;;9.10;72.80;;;;;;5069780;28;20029;-74
2022/12/22 05:53:24;;;;;;;2.42;2.20;;;9.10;73.00;;;;;;5070903;28;20037;-74
2022/12/22 05:55:51;;;;;;;4.28;2.67;;;9.10;73.00;;;;;;5074242;28;20392;-74
2022/12/22 05:58:18;;;;;;;4.35;3.00;;;9.10;73.10;;;;;;5062628;28;20033;-80
2022/12/22 06:00:44;;;;;;;7.60;3.53;;;9.10;73.30;;;;;;5062329;28;20487;-77
2022/12/22 06:03:10;;;;;;;6.63;4.53;;;9.20;73.40;;;;;;5069903;28;20051;-77
2022/12/22 06:05:35;;;;;;;11.15;6.78;;;9.20;74.10;;;;;;5068677;28;20046;-77
2022/12/22 06:08:01;;;;;;;15.07;8.73;;;9.20;75.50;;;;;;5070786;28;20534;-77
2022/12/22 06:10:27;;;;;;;14.30;8.52;;;9.20;76.90;;;;;;5086504;28;20066;-76
2022/12/22 06:12:55;;;;;;;14.98;7.95;;;9.20;77.90;;;;;;5070255;28;20155;-76
2022/12/22 06:15:21;;;;;;;12.93;8.43;;;9.30;78.10;;;;;;5070828;28;20036;-78
2022/12/22 06:17:47;;;;;;;12.52;8.48;;;9.30;78.80;;;;;;5071152;28;20045;-76
2022/12/22 06:20:13;;;;;;;11.13;7.43;;;9.30;78.90;;;;;;5069262;28;20087;-77
2022/12/22 06:22:39;;;;;;;9.90;7.03;;;9.30;79.00;;;;;;5071016;28;20271;-77
2022/12/22 06:25:06;;;;;;;11.10;6.28;;;9.40;78.90;;;;;;5076367;28;20279;-77
2022/12/22 06:27:31;;;;;;;10.38;6.53;;;9.40;78.80;;;;;;5069567;28;20638;-75
2022/12/22 06:29:57;;;;;;;9.32;6.30;;;9.40;79.40;;;;;;5069654;28;20115;-76
2022/12/22 06:32:23;;;;;;;9.27;6.03;;;9.40;78.80;;;;;;5070827;28;20154;-75
2022/12/22 06:34:49;;;;;;;9.52;5.72;;;9.50;78.80;;;;;;5049837;28;20036;-75
2022/12/22 06:37:15;;;;;;;7.55;5.63;;;9.50;78.80;;;;;;5075451;28;20040;-76
2022/12/22 06:39:41;;;;;;;10.82;6.35;;;9.50;78.90;;;;;;5070027;28;20570;-76
2022/12/22 06:44:54;;;;;;;8.25;5.65;;;9.50;79.60;;;;;;5069559;28;20499;-76
2022/12/22 06:47:20;;;;;;;12.52;5.72;;;9.50;79.80;;;;;;5084124;28;20518;-76
2022/12/22 06:49:46;;;;;;;9.65;5.45;;;9.60;79.90;;;;;;5068925;28;20153;-76
2022/12/22 06:52:12;;;;;;;8.35;5.03;;;9.60;80.00;;;;;;5068150;28;20516;-77
2022/12/22 06:54:38;;;;;;;10.48;5.38;;;9.70;80.10;;;;;;5069111;28;20108;-77
2022/12/22 06:57:41;;;;;;;7.38;5.32;;;9.70;79.80;;;;;;5078211;28;20055;-75
2022/12/22 07:00:08;;;;;;;6.20;4.70;;;9.70;80.10;;;;;;5068748;28;20048;-74
2022/12/22 07:02:34;;;;;;;7.53;5.10;;;9.70;80.00;;;;;;5090802;28;20460;-75
2022/12/22 07:05:00;;;;;;;6.05;4.47;;;9.70;80.20;;;;;;5065686;28;20036;-75
2022/12/22 07:07:26;;;;;;;7.72;4.80;;;9.70;80.20;;;;;;5069489;28;20557;-75
2022/12/22 07:09:54;;;;;;;9.50;5.60;;;9.80;80.20;;;;;;5068855;28;20043;-75
2022/12/22 07:12:21;;;;;;;8.00;4.55;;;9.80;80.10;;;;;;5070573;28;21551;-76
2022/12/22 07:14:47;;;;;;;7.38;4.25;;;9.80;79.90;;;;;;5070042;28;20039;-75
2022/12/22 07:17:13;;;;;;;9.38;4.95;;;9.80;79.70;;;;;;5069499;28;20032;-75
2022/12/22 07:19:39;;;;;;;7.60;4.45;;;9.80;79.40;;;;;;5068744;28;20036;-74
2022/12/22 07:22:05;;;;;;;6.00;3.67;;;9.80;79.30;;;;;;5069344;28;20056;-74
2022/12/22 07:24:31;;;;;;;6.28;4.50;;;9.90;79.10;;;;;;5068157;28;20036;-74
2022/12/22 07:26:56;;;;;;;8.90;4.20;;;9.90;78.80;;;;;;5049299;28;20036;-76
2022/12/22 07:29:23;;;;;;;7.47;4.57;;;9.90;78.80;;;;;;5086968;28;20071;-75
2022/12/22 07:31:49;;;;;;;6.88;4.30;;;9.90;78.80;;;;;;5067615;28;20060;-74
2022/12/22 07:34:15;;;;;;;7.20;4.50;;;9.90;78.80;;;;;;5067993;28;20522;-74
2022/12/22 07:36:40;;;;;;;7.65;4.53;;;9.90;78.70;;;;;;5068962;28;20036;-76
2022/12/22 07:39:07;;;;;;;7.55;4.28;;;10.00;78.60;;;;;;5069557;28;20814;-74
2022/12/22 07:44:17;;;;;;;6.35;4.18;;;9.90;78.20;;;;;;5073196;28;20036;-75
2022/12/22 07:46:43;;;;;;;6.50;4.68;;;10.00;78.20;;;;;;5072932;28;20040;-75
2022/12/22 07:51:56;;;;;;;6.57;3.88;;;10.00;77.90;;;;;;5070895;28;20056;-74
2022/12/22 07:54:23;;;;;;;5.65;4.45;;;10.00;77.80;;;;;;5073689;28;20119;-74
2022/12/22 07:56:49;;;;;;;7.50;4.22;;;10.00;77.80;;;;;;5088413;28;20020;-74
2022/12/22 07:59:16;;;;;;;4.25;3.65;;;10.00;77.80;;;;;;5082299;28;20534;-73
2022/12/22 08:01:42;;;;;;;6.20;3.88;;;10.00;77.70;;;;;;5063023;28;20028;-75
2022/12/22 08:04:09;;;;;;;6.47;4.35;;;10.00;78.30;;;;;;5072516;28;20040;-74
2022/12/22 08:06:35;;;;;;;5.60;3.90;;;10.10;77.90;;;;;;5066720;28;20028;-75
2022/12/22 08:09:02;;;;;;;5.97;4.20;;;10.10;78.00;;;;;;5070708;28;20059;-75
2022/12/22 08:11:28;;;;;;;6.88;4.10;;;10.10;77.90;;;;;;5072591;28;20360;-73
2022/12/22 08:13:54;;;;;;;6.45;4.05;;;10.10;77.80;;;;;;5087425;28;20043;-75
2022/12/22 08:16:21;;;;;;;5.25;3.90;;;10.10;77.80;;;;;;5073980;28;20537;-75
2022/12/22 08:18:47;;;;;;;5.72;4.30;;;10.10;77.80;;;;;;5069845;28;20507;-75
2022/12/22 08:21:13;;;;;;;5.60;4.30;;;10.10;77.80;;;;;;5072720;28;20031;-75
2022/12/22 08:23:40;;;;;;;5.38;3.63;;;10.10;77.80;;;;;;5077367;28;20033;-74
2022/12/22 08:26:06;;;;;;;6.28;3.92;;;10.10;77.70;;;;;;5076185;28;20445;-75
2022/12/22 08:28:35;;;;;;;8.18;3.67;;;10.20;77.70;;;;;;5071043;28;20051;-75
2022/12/22 08:31:02;;;;;;;6.82;3.95;;;10.20;77.50;;;;;;5072145;28;20024;-74
2022/12/22 08:33:28;;;;;;;6.03;4.40;;;10.20;77.40;;;;;;5070002;28;20032;-72
2022/12/22 08:35:56;;;;;;;5.80;4.13;;;10.20;77.30;;;;;;5069996;28;20035;-75
2022/12/22 08:38:22;;;;;;;5.53;3.88;;;10.20;77.20;;;;;;5071734;28;20028;-74
2022/12/22 08:40:48;;;;;;;6.03;4.50;;;10.20;77.10;;;;;;5070117;28;20760;-73
2022/12/22 08:43:15;;;;;;;5.43;3.50;;;10.20;77.00;;;;;;5071886;28;20066;-74
2022/12/22 08:45:41;;;;;;;6.88;4.45;;;10.20;76.90;;;;;;5086748;28;20147;-74
2022/12/22 08:48:09;;;;;;;7.15;4.43;;;10.20;76.80;;;;;;5071906;28;20202;-75
2022/12/22 08:50:35;;;;;;;5.80;4.18;;;10.20;77.40;;;;;;5069964;28;20060;-74
2022/12/22 08:53:05;;;;;;;5.43;4.35;;;10.20;76.70;;;;;;5078910;28;20047;-73
2022/12/22 08:55:31;;;;;;;5.05;4.10;;;10.30;76.80;;;;;;5071920;28;20603;-73
2022/12/22 08:57:57;;;;;;;5.53;4.15;;;10.30;76.80;;;;;;5071227;28;20041;-74
2022/12/22 09:00:24;;;;;;;6.03;4.35;;;10.20;76.60;;;;;;5038033;28;20527;-74
2022/12/22 09:02:50;;;;;;;5.70;4.55;;;10.30;76.70;;;;;;5072367;28;20128;-75
2022/12/22 09:05:17;;;;;;;8.52;5.00;;;10.30;76.50;;;;;;5069712;28;20165;-75
2022/12/22 09:07:46;;;;;;;7.78;4.30;;;10.30;76.50;;;;;;5071246;28;20079;-75
2022/12/22 09:10:12;;;;;;;5.13;3.83;;;10.30;76.50;;;;;;5071542;28;20143;-75
2022/12/22 09:12:38;;;;;;;5.97;4.40;;;10.30;76.30;;;;;;5072484;28;20036;-74
2022/12/22 09:15:07;;;;;;;4.97;4.20;;;10.30;76.20;;;;;;5078230;28;20033;-74
2022/12/22 09:17:35;;;;;;;4.82;4.25;;;10.30;76.10;;;;;;5075377;28;20029;-82
2022/12/22 09:20:03;;;;;;;6.53;4.53;;;10.30;76.10;;;;;;5075936;28;20066;-78
2022/12/22 09:22:29;;;;;;;5.65;4.55;;;10.30;76.10;;;;;;5073317;28;20036;-75
2022/12/22 09:24:55;;;;;;;6.18;4.53;;;10.30;76.00;;;;;;5078734;28;20526;-75
2022/12/22 09:27:21;;;;;;;6.55;4.43;;;10.40;76.30;;;;;;5076444;28;20060;-76
2022/12/22 09:29:47;;;;;;;6.35;4.35;;;10.40;76.40;;;;;;5075810;28;20028;-75
2022/12/22 09:32:13;;;;;;;6.65;4.93;;;10.40;76.60;;;;;;5074431;28;20045;-75
2022/12/22 09:34:39;;;;;;;6.55;5.18;;;10.40;76.60;;;;;;5070023;28;20125;-75
2022/12/22 09:37:05;;;;;;;10.15;4.53;;;10.40;76.70;;;;;;5074718;28;20101;-76
2022/12/22 09:39:31;;;;;;;5.47;4.63;;;10.40;76.60;;;;;;5071197;28;20028;-76
2022/12/22 09:41:58;;;;;;;8.23;4.57;;;10.40;76.60;;;;;;5072752;28;20032;-76
2022/12/22 09:44:38;;;;;;;7.30;4.75;;;10.40;76.50;;;;;;5072492;28;20036;-76
2022/12/22 09:47:17;;;;;;;6.55;5.00;;;10.40;76.40;;;;;;5089651;28;20403;-76
2022/12/22 09:49:43;;;;;;;6.93;4.30;;;10.40;76.50;;;;;;5072354;28;20178;-76
2022/12/22 09:52:32;;;;;;;6.00;4.45;;;10.40;76.30;;;;;;5074004;28;20064;-76
2022/12/22 09:54:59;;;;;;;6.82;4.43;;;10.40;76.30;;;;;;5083536;28;20041;-75
2022/12/22 09:57:30;;;;;;;7.00;4.80;;;10.50;76.30;;;;;;5075213;28;20111;-75
2022/12/22 10:00:05;;;;;;;8.48;5.15;;;10.50;76.40;;;;;;5071171;28;20037;-75
2022/12/22 10:03:10;;;;;;;7.53;5.20;;;10.40;76.20;;;;;;5073730;28;20075;-75
2022/12/22 10:05:50;;;;;;;7.10;4.90;;;10.50;76.30;;;;;;5050042;28;20060;-75
2022/12/22 10:08:26;;;;;;;7.40;4.90;;;10.50;76.80;;;;;;5091003;28;20056;-76
2022/12/22 10:10:53;;;;;;;8.68;5.90;;;10.50;76.10;;;;;;5086378;28;20033;-76
2022/12/22 10:13:19;;;;;;;8.55;6.45;;;10.40;76.10;;;;;;5074613;28;20036;-76
2022/12/22 10:15:46;;;;;;;10.73;6.70;;;10.50;76.10;;;;;;5071947;28;20289;-77
2022/12/22 10:18:15;;;;;;;9.55;5.70;;;10.50;76.20;;;;;;5073051;28;20415;-77
2022/12/22 10:20:46;;;;;;;9.50;6.32;;;10.40;76.10;;;;;;5070301;28;20032;-76
2022/12/22 10:23:26;;;;;;;13.80;6.65;;;10.50;76.10;;;;;;5093471;28;20132;-76
2022/12/22 10:25:55;;;;;;;11.48;5.88;;;10.40;76.10;;;;;;5071448;28;20074;-77
2022/12/22 10:28:26;;;;;;;8.05;5.95;;;10.50;76.20;;;;;;5073715;28;20562;-75
2022/12/22 10:31:10;;;;;;;10.13;6.15;;;10.50;76.10;;;;;;5071699;28;20123;-75
2022/12/22 10:33:38;;;;;;;7.70;5.57;;;10.50;76.00;;;;;;5073445;28;20068;-74
2022/12/22 10:36:05;;;;;;;10.48;5.78;;;10.50;76.10;;;;;;5074365;28;20052;-75
2022/12/22 10:38:38;;;;;;;10.85;6.00;;;10.40;75.90;;;;;;5073652;28;20070;-75
2022/12/22 10:41:15;;;;;;;7.38;5.55;;;10.50;75.90;;;;;;5062594;28;20568;-75
2022/12/22 10:43:53;;;;;;;7.88;4.93;;;10.50;76.00;;;;;;5085495;28;20518;-74
2022/12/22 10:46:32;;;;;;;8.73;5.90;;;10.50;75.90;;;;;;5084468;28;20036;-75
2022/12/22 10:49:12;;;;;;;8.35;5.82;;;10.50;76.10;;;;;;5069057;28;20061;-74
2022/12/22 10:51:39;;;;;;;8.13;5.80;;;10.50;76.10;;;;;;5068825;28;20074;-75
2022/12/22 10:54:05;;;;;;;8.98;6.03;;;10.50;76.20;;;;;;5074112;28;20029;-74
2022/12/22 10:56:32;;;;;;;9.10;5.70;;;10.50;76.30;;;;;;5073558;28;20181;-74
2022/12/22 10:59:01;;;;;;;9.25;5.95;;;10.50;76.30;;;;;;5068971;28;20044;-76
2022/12/22 11:01:33;;;;;;;8.70;5.78;;;10.50;76.30;;;;;;5069586;28;20562;-74
2022/12/22 11:04:24;;;;;;;8.77;6.03;;;10.50;76.20;;;;;;5069042;28;20028;-76
2022/12/22 11:06:53;;;;;;;9.73;5.82;;;10.50;76.20;;;;;;5060646;28;20106;-75
2022/12/22 11:09:20;;;;;;;9.82;6.15;;;10.50;76.10;;;;;;5070847;28;20077;-77
2022/12/22 11:11:55;;;;;;;9.52;5.93;;;10.60;76.10;;;;;;5069330;28;20455;-76
2022/12/22 11:14:48;;;;;;;7.65;5.90;;;10.60;76.30;;;;;;5071159;28;20419;-76
2022/12/22 11:17:20;;;;;;;8.30;6.22;;;10.60;76.10;;;;;;5077259;28;20075;-77
2022/12/22 11:20:07;;;;;;;7.97;5.88;;;10.60;76.10;;;;;;5075174;28;20029;-77
2022/12/22 11:22:58;;;;;;;8.27;5.38;;;10.60;76.10;;;;;;5075030;28;20461;-76
2022/12/22 11:25:36;;;;;;;9.25;5.72;;;10.60;76.10;;;;;;5074017;28;20040;-76
2022/12/22 11:28:20;;;;;;;8.68;5.80;;;10.60;76.00;;;;;;5082030;28;20043;-74
2022/12/22 11:30:56;;;;;;;9.23;5.97;;;10.60;76.00;;;;;;5080164;28;20052;-75
2022/12/22 11:33:37;;;;;;;7.88;5.80;;;10.60;75.90;;;;;;5075380;28;20036;-75
2022/12/22 11:36:31;;;;;;;7.78;5.65;;;10.60;76.00;;;;;;5074707;28;20093;-75
2022/12/22 11:39:12;;;;;;;11.35;6.07;;;10.60;75.90;;;;;;5075281;28;20070;-75
2022/12/22 11:42:22;;;;;;;9.00;5.75;;;10.60;75.90;;;;;;5075175;28;20036;-75
2022/12/22 11:44:54;;;;;;;10.52;5.97;;;10.60;75.90;;;;;;5015970;28;20813;-76
2022/12/22 11:47:46;;;;;;;7.80;5.97;;;10.60;75.80;;;;;;5015792;28;20451;-77
2022/12/22 11:50:20;;;;;;;10.25;5.65;;;10.60;75.90;;;;;;5031870;28;20389;-75
2022/12/22 11:53:23;;;;;;;10.30;5.82;;;10.60;75.90;;;;;;5032778;28;20057;-76
2022/12/22 11:55:58;;;;;;;10.20;5.82;;;10.60;75.80;;;;;;5038812;28;20677;-75
2022/12/22 11:58:47;;;;;;;9.13;5.40;;;10.60;75.90;;;;;;5033288;28;20033;-76
2022/12/22 12:01:21;;;;;;;9.25;5.63;;;10.60;75.80;;;;;;5014725;28;20057;-76
2022/12/22 12:04:05;;;;;;;7.93;5.45;;;10.50;75.80;;;;;;5016135;28;20033;-75
2022/12/22 12:06:53;;;;;;;10.60;5.75;;;10.60;76.00;;;;;;5032735;28;20093;-74
2022/12/22 12:09:57;;;;;;;8.48;6.00;;;10.60;76.70;;;;;;5032549;28;20029;-76
2022/12/22 12:12:26;;;;;;;7.85;5.82;;;10.60;76.10;;;;;;4958097;28;20046;-75
2022/12/22 12:15:07;;;;;;;9.63;5.82;;;10.60;76.20;;;;;;4948999;28;20034;-76
2022/12/22 12:17:47;;;;;;;7.60;5.57;;;10.60;76.40;;;;;;5013151;28;20104;-75
2022/12/22 12:20:31;;;;;;;10.00;5.85;;;10.60;76.20;;;;;;5012887;28;20033;-76
2022/12/22 12:23:06;;;;;;;10.32;5.50;;;10.60;76.10;;;;;;5013099;28;20041;-75
2022/12/22 12:25:38;;;;;;;8.20;5.75;;;10.60;76.20;;;;;;5011975;28;20084;-75
2022/12/22 12:28:16;;;;;;;7.88;5.20;;;10.60;76.10;;;;;;4994318;28;20467;-76
2022/12/22 12:30:58;;;;;;;6.47;5.07;;;10.60;76.10;;;;;;5010357;28;20056;-75
2022/12/22 12:33:26;;;;;;;8.88;5.75;;;10.60;76.10;;;;;;5022788;28;20183;-75
2022/12/22 12:36:37;;;;;;;8.55;5.68;;;10.60;76.00;;;;;;5009094;28;20033;-75
2022/12/22 12:39:18;;;;;;;8.55;5.45;;;10.60;76.10;;;;;;5008963;28;20117;-77
2022/12/22 12:42:07;;;;;;;8.43;5.18;;;10.60;76.60;;;;;;5009720;28;20049;-76
2022/12/22 12:44:36;;;;;;;8.15;5.53;;;10.60;76.10;;;;;;5071222;28;20071;-75
2022/12/22 12:47:23;;;;;;;9.95;5.13;;;10.60;76.00;;;;;;5069900;28;20032;-75
2022/12/22 12:49:49;;;;;;;7.00;5.18;;;10.60;76.10;;;;;;5071485;28;21070;-75
2022/12/22 12:52:15;;;;;;;8.65;4.65;;;10.60;76.10;;;;;;5072037;28;20123;-76
2022/12/22 12:54:48;;;;;;;6.72;5.50;;;10.60;76.10;;;;;;5071935;28;20503;-74
2022/12/22 12:57:45;;;;;;;8.70;5.45;;;10.60;76.10;;;;;;5070196;28;20028;-76
2022/12/22 13:00:34;;;;;;;8.88;5.00;;;10.60;76.10;;;;;;5070151;28;20040;-75
2022/12/22 13:03:04;;;;;;;8.82;5.53;;;10.60;76.20;;;;;;5068949;28;20404;-75
2022/12/22 13:05:47;;;;;;;8.30;5.03;;;10.60;76.20;;;;;;5072753;28;20423;-77
2022/12/22 13:08:15;;;;;;;7.25;5.10;;;10.60;76.20;;;;;;5069466;28;20041;-75
2022/12/22 13:10:51;;;;;;;7.95;5.38;;;10.60;76.10;;;;;;5070807;28;20033;-75
2022/12/22 13:13:20;;;;;;;8.93;5.60;;;10.60;76.20;;;;;;5070971;28;20044;-74
2022/12/22 13:16:07;;;;;;;9.43;5.93;;;10.60;76.20;;;;;;5071100;28;20524;-76
2022/12/22 13:18:33;;;;;;;5.50;4.40;;;10.60;76.10;;;;;;5068788;28;20036;-76
2022/12/22 13:21:05;;;;;;;6.93;4.85;;;10.60;76.00;;;;;;5069801;28;20110;-76
2022/12/22 13:24:02;;;;;;;9.98;4.90;;;10.60;76.00;;;;;;5070864;28;20441;-75
2022/12/22 13:26:33;;;;;;;11.15;5.70;;;10.60;76.30;;;;;;5068838;28;20029;-77
2022/12/22 13:29:08;;;;;;;7.13;4.80;;;10.60;76.20;;;;;;5071725;28;20044;-75
2022/12/22 13:31:42;;;;;;;;;;;10.60;76.30;;;;;;5071361;28;20036;-75
2022/12/22 13:34:22;;;;;;;6.05;4.28;;;10.60;76.20;;;;;;5070998;28;19925;-75
2022/12/22 13:36:49;;;;;;;7.03;4.63;;;10.60;76.10;;;;;;5075764;28;20036;-76
2022/12/22 13:39:16;;;;;;;9.07;5.03;;;10.60;76.10;;;;;;5071188;28;20301;-75
2022/12/22 13:41:45;;;;;;;6.40;4.55;;;10.60;76.10;;;;;;5068592;28;20438;-75
2022/12/22 13:44:32;;;;;;;7.00;4.70;;;10.60;76.10;;;;;;5069761;28;20089;-74
2022/12/22 13:47:05;;;;;;;8.48;4.72;;;10.60;76.10;;;;;;5069650;28;20071;-75
2022/12/22 13:49:33;;;;;;;7.03;4.45;;;10.60;75.90;;;;;;5068889;28;20036;-75
2022/12/22 13:52:00;;;;;;;6.90;4.30;;;10.60;75.70;;;;;;5070602;28;20043;-76
2022/12/22 13:54:35;;;;;;;5.15;4.13;;;10.60;75.60;;;;;;5069116;28;20498;-76
2022/12/22 13:57:04;;;;;;;7.70;4.25;;;10.60;75.60;;;;;;5086072;28;20034;-76
2022/12/22 13:59:42;;;;;;;7.50;4.80;;;10.70;75.70;;;;;;5068757;28;20704;-75
2022/12/22 14:02:08;;;;;;;6.50;4.88;;;10.60;75.40;;;;;;5070305;28;20111;-76
2022/12/22 14:04:36;;;;;;;5.57;4.55;;;10.60;75.40;;;;;;5070112;28;20120;-75
2022/12/22 14:07:17;;;;;;;6.55;4.32;;;10.60;75.40;;;;;;5074104;28;20834;-75
2022/12/22 14:09:44;;;;;;;5.57;4.10;;;10.60;75.30;;;;;;5085233;28;20035;-76
2022/12/22 14:12:18;;;;;;;5.38;4.50;;;10.60;75.50;;;;;;5071798;28;20453;-76
2022/12/22 14:14:46;;;;;;;8.98;4.72;;;10.70;75.80;;;;;;5071065;28;20105;-77
2022/12/22 14:17:27;;;;;;;7.00;4.45;;;10.70;76.50;;;;;;5069357;28;20029;-77
2022/12/22 14:19:56;;;;;;;5.20;4.20;;;10.60;75.70;;;;;;5069049;28;20043;-76
2022/12/22 14:22:32;;;;;;;5.25;3.65;;;10.70;75.70;;;;;;5068120;28;20047;-75
2022/12/22 14:25:13;;;;;;;7.30;4.45;;;10.70;75.70;;;;;;5070225;28;20045;-76
2022/12/22 14:27:47;;;;;;;6.25;4.53;;;10.70;75.60;;;;;;5069658;28;20053;-75
2022/12/22 14:30:26;;;;;;;5.13;3.88;;;10.60;75.50;;;;;;5085005;28;20118;-76
2022/12/22 14:32:54;;;;;;;8.45;4.60;;;10.70;75.70;;;;;;5067860;28;20103;-77
2022/12/22 14:35:20;;;;;;;5.75;4.35;;;10.70;75.70;;;;;;5067845;28;20036;-77
2022/12/22 14:37:50;;;;;;;6.20;3.92;;;10.60;75.60;;;;;;5070031;28;20052;-76
2022/12/22 14:40:37;;;;;;;5.90;4.15;;;10.70;75.50;;;;;;5085338;28;20185;-76
2022/12/22 14:43:12;;;;;;;7.28;4.68;;;10.70;75.60;;;;;;5069455;28;20559;-75
2022/12/22 14:45:38;;;;;;;5.65;4.05;;;10.60;75.50;;;;;;5081024;28;20078;-75
2022/12/22 14:48:07;;;;;;;7.05;4.38;;;10.60;75.70;;;;;;5079550;28;20032;-77
2022/12/22 14:50:34;;;;;;;7.05;4.30;;;10.70;75.70;;;;;;5067009;28;20511;-76
2022/12/22 14:53:03;;;;;;;5.85;4.25;;;10.70;75.80;;;;;;5067719;28;20042;-75
2022/12/22 14:55:41;;;;;;;8.07;4.55;;;10.70;75.70;;;;;;5069426;28;20227;-76
2022/12/22 14:58:09;;;;;;;4.95;4.05;;;10.60;75.60;;;;;;5086043;28;20036;-76
2022/12/22 15:00:45;;;;;;;5.93;4.20;;;10.70;75.60;;;;;;5068635;28;20085;-75
2022/12/22 15:03:23;;;;;;;;;;;10.70;75.70;;;;;;5069273;28;20028;-75
2022/12/22 15:05:50;;;;;;;7.20;4.43;;;10.70;75.50;;;;;;5084572;28;19947;-76
2022/12/22 15:08:36;;;;;;;6.03;4.40;;;10.70;75.50;;;;;;5067734;28;20044;-76
2022/12/22 15:11:02;;;;;;;6.82;4.43;;;10.70;75.50;;;;;;5050340;28;20058;-76
2022/12/22 15:13:29;;;;;;;5.45;4.50;;;10.60;75.40;;;;;;5069681;28;20102;-76
2022/12/22 15:15:55;;;;;;;7.65;4.90;;;10.70;75.50;;;;;;5084045;28;20079;-76
2022/12/22 15:18:26;;;;;;;8.55;4.82;;;10.60;75.40;;;;;;5069305;28;20036;-77
2022/12/22 15:20:56;;;;;;;4.50;3.80;;;10.70;75.40;;;;;;5074538;28;20071;-76
2022/12/22 15:23:23;;;;;;;6.53;4.47;;;10.60;75.90;;;;;;5076070;28;20498;-75
2022/12/22 15:25:49;;;;;;;7.22;4.30;;;10.70;75.30;;;;;;5068716;28;20044;-74
2022/12/22 15:28:15;;;;;;;6.05;4.38;;;10.70;75.30;;;;;;5050317;28;20049;-76
2022/12/22 15:30:41;;;;;;;6.50;4.72;;;10.70;75.40;;;;;;5075842;28;20029;-76
2022/12/22 15:33:16;;;;;;;6.30;4.40;;;10.70;75.50;;;;;;5069497;28;20379;-75
2022/12/22 15:35:43;;;;;;;6.10;4.15;;;10.70;75.40;;;;;;5069043;28;20056;-76
2022/12/22 15:38:16;;;;;;;6.32;4.75;;;10.70;75.30;;;;;;5067545;28;20123;-76
2022/12/22 15:40:42;;;;;;;7.78;4.65;;;10.70;75.20;;;;;;5084164;28;20025;-78
2022/12/22 15:43:09;;;;;;;8.00;4.55;;;10.70;75.30;;;;;;5068173;28;20121;-76
2022/12/22 15:45:35;;;;;;;5.85;4.40;;;10.70;75.40;;;;;;5074466;28;20074;-76
2022/12/22 15:48:02;;;;;;;6.63;4.28;;;10.70;75.30;;;;;;5069410;28;20035;-76
2022/12/22 15:50:35;;;;;;;7.43;4.50;;;10.70;75.30;;;;;;5072273;28;20028;-74
2022/12/22 15:53:03;;;;;;;7.47;4.72;;;10.70;75.30;;;;;;5073591;28;20136;-76
2022/12/22 15:55:29;;;;;;;7.07;4.20;;;10.60;75.10;;;;;;5068505;28;20036;-78
2022/12/22 15:57:57;;;;;;;7.50;4.93;;;10.70;75.30;;;;;;5069508;28;20136;-78
2022/12/22 16:00:24;;;;;;;5.82;4.40;;;10.70;75.20;;;;;;5084936;28;20033;-76
2022/12/22 16:02:50;;;;;;;6.65;4.45;;;10.70;75.30;;;;;;5071760;28;20127;-79
2022/12/22 16:05:17;;;;;;;6.32;4.40;;;10.70;75.30;;;;;;5072780;28;20119;-76
2022/12/22 16:07:43;;;;;;;7.72;4.55;;;10.70;75.30;;;;;;5073079;28;20032;-76
2022/12/22 16:10:24;;;;;;;6.75;4.32;;;10.70;75.40;;;;;;5072892;28;20082;-76
2022/12/22 16:12:58;;;;;;;6.40;4.18;;;10.70;75.40;;;;;;5068658;28;20036;-75
2022/12/22 16:15:30;;;;;;;6.85;4.57;;;10.70;75.50;;;;;;5071274;28;20048;-76
2022/12/22 16:17:57;;;;;;;6.50;4.60;;;10.70;75.40;;;;;;5072679;28;20476;-77
2022/12/22 16:20:24;;;;;;;6.65;4.20;;;10.70;76.00;;;;;;5072430;28;20029;-76
2022/12/22 16:22:51;;;;;;;6.10;4.45;;;10.70;75.40;;;;;;5072653;28;20513;-77
2022/12/22 16:25:22;;;;;;;7.07;4.68;;;10.70;75.30;;;;;;5072913;28;20105;-76
2022/12/22 16:27:49;;;;;;;5.57;3.95;;;10.70;75.30;;;;;;5073693;28;20043;-75
2022/12/22 16:30:23;;;;;;;6.28;4.43;;;10.70;75.20;;;;;;5084895;28;20028;-76
2022/12/22 16:32:51;;;;;;;6.47;4.47;;;10.70;75.10;;;;;;5078137;28;20161;-77
2022/12/22 16:35:25;;;;;;;6.30;4.30;;;10.70;75.00;;;;;;5073762;28;20031;-75
2022/12/22 16:37:55;;;;;;;6.10;4.30;;;10.70;75.80;;;;;;5076179;28;20036;-76
2022/12/22 16:40:21;;;;;;;6.40;4.72;;;10.70;75.80;;;;;;5076310;28;20063;-75
2022/12/22 16:42:59;;;;;;;6.35;4.57;;;10.80;76.30;;;;;;5075961;28;20496;-74
2022/12/22 16:45:27;;;;;;;5.38;3.92;;;10.80;78.60;;;;;;5071239;28;20723;-73
2022/12/22 16:48:00;;;;;;;5.43;3.72;;;10.90;79.70;;;;;;5076930;28;20029;-72
2022/12/22 16:50:31;;;;;;;4.10;3.47;;;11.00;81.10;;;;;;5075625;28;20036;-72
2022/12/22 16:53:03;;;;;;;5.95;3.60;;;11.10;80.40;;;;;;5075309;28;20668;-72